sensor_id;sensor_type;location;lat;lon;timestamp;pressure;altitude;pressure_sealevel;temperature
64624;BMP280;51031;50.912;9.242;2022-08-21T00:00:13;99235.69;;;27.95
64624;BMP280;51031;50.912;9.242;2022-08-21T00:00:30;99225.97;;;27.94
64624;BMP280;51031;50.912;9.242;2022-08-21T00:00:50;99233.00;;;27.95
64624;BMP280;51031;50.912;9.242;2022-08-21T00:01:10;99229.28;;;27.96
64624;BMP280;51031;50.912;9.242;2022-08-21T00:01:28;99223.91;;;27.96
64624;BMP280;51031;50.912;9.242;2022-08-21T00:01:44;99222.88;;;27.97
64624;BMP280;51031;50.912;9.242;2022-08-21T00:02:00;99222.88;;;27.97
64624;BMP280;51031;50.912;9.242;2022-08-21T00:02:19;99226.59;;;27.96
64624;BMP280;51031;50.912;9.242;2022-08-21T00:02:36;99223.72;;;27.97
64624;BMP280;51031;50.912;9.242;2022-08-21T00:02:55;99228.25;;;27.97
64624;BMP280;51031;50.912;9.242;2022-08-21T00:03:12;99228.91;;;27.99
64624;BMP280;51031;50.912;9.242;2022-08-21T00:03:28;99220.84;;;27.99
64624;BMP280;51031;50.912;9.242;2022-08-21T00:03:44;99220.84;;;27.99
64624;BMP280;51031;50.912;9.242;2022-08-21T00:04:04;99227.06;;;27.99
64624;BMP280;51031;50.912;9.242;2022-08-21T00:04:22;99225.19;;;28.00
64624;BMP280;51031;50.912;9.242;2022-08-21T00:04:38;99226.88;;;28.01
64624;BMP280;51031;50.912;9.242;2022-08-21T00:04:53;99217.94;;;28.00
64624;BMP280;51031;50.912;9.242;2022-08-21T00:05:09;99225.84;;;28.02
64624;BMP280;51031;50.912;9.242;2022-08-21T00:05:25;99218.81;;;28.01
64624;BMP280;51031;50.912;9.242;2022-08-21T00:05:46;99224.00;;;28.02
64624;BMP280;51031;50.912;9.242;2022-08-21T00:06:02;99223.16;;;28.02
64624;BMP280;51031;50.912;9.242;2022-08-21T00:06:18;99223.16;;;28.02
64624;BMP280;51031;50.912;9.242;2022-08-21T00:06:35;99226.69;;;28.02
64624;BMP280;51031;50.912;9.242;2022-08-21T00:06:52;99224.19;;;28.01
64624;BMP280;51031;50.912;9.242;2022-08-21T00:07:09;99225.19;;;28.00
64624;BMP280;51031;50.912;9.242;2022-08-21T00:07:26;99223.31;;;28.00
64624;BMP280;51031;50.912;9.242;2022-08-21T00:07:42;99219.81;;;28.00
64624;BMP280;51031;50.912;9.242;2022-08-21T00:07:58;99217.94;;;28.00
64624;BMP280;51031;50.912;9.242;2022-08-21T00:08:14;99215.25;;;28.00
64624;BMP280;51031;50.912;9.242;2022-08-21T00:08:31;99222.50;;;28.00
64624;BMP280;51031;50.912;9.242;2022-08-21T00:08:47;99222.50;;;28.00
64624;BMP280;51031;50.912;9.242;2022-08-21T00:09:05;99217.09;;;28.00
64624;BMP280;51031;50.912;9.242;2022-08-21T00:09:21;99224.19;;;28.01
64624;BMP280;51031;50.912;9.242;2022-08-21T00:09:37;99221.50;;;28.01
64624;BMP280;51031;50.912;9.242;2022-08-21T00:09:53;99221.50;;;28.01
64624;BMP280;51031;50.912;9.242;2022-08-21T00:10:09;99215.91;;;28.02
64624;BMP280;51031;50.912;9.242;2022-08-21T00:10:26;99220.47;;;28.02
64624;BMP280;51031;50.912;9.242;2022-08-21T00:10:43;99219.63;;;28.01
64624;BMP280;51031;50.912;9.242;2022-08-21T00:11:03;99219.63;;;28.01
64624;BMP280;51031;50.912;9.242;2022-08-21T00:11:19;99225.03;;;28.01
64624;BMP280;51031;50.912;9.242;2022-08-21T00:11:37;99214.25;;;28.01
64624;BMP280;51031;50.912;9.242;2022-08-21T00:11:54;99216.94;;;28.01
64624;BMP280;51031;50.912;9.242;2022-08-21T00:12:10;99220.47;;;28.02
64624;BMP280;51031;50.912;9.242;2022-08-21T00:12:26;99219.63;;;28.01
64624;BMP280;51031;50.912;9.242;2022-08-21T00:12:43;99218.81;;;28.01
64624;BMP280;51031;50.912;9.242;2022-08-21T00:12:59;99219.81;;;28.00
64624;BMP280;51031;50.912;9.242;2022-08-21T00:13:17;99219.16;;;27.98
64624;BMP280;51031;50.912;9.242;2022-08-21T00:13:35;99216.47;;;27.98
64624;BMP280;51031;50.912;9.242;2022-08-21T00:13:50;99216.47;;;27.98
64624;BMP280;51031;50.912;9.242;2022-08-21T00:14:08;99217.47;;;27.97
64624;BMP280;51031;50.912;9.242;2022-08-21T00:14:24;99220.00;;;27.98
64624;BMP280;51031;50.912;9.242;2022-08-21T00:14:41;99213.78;;;27.98
64624;BMP280;51031;50.912;9.242;2022-08-21T00:14:56;99218.13;;;27.99
64624;BMP280;51031;50.912;9.242;2022-08-21T00:15:15;99206.53;;;27.98
64624;BMP280;51031;50.912;9.242;2022-08-21T00:15:33;99214.63;;;27.98
64624;BMP280;51031;50.912;9.242;2022-08-21T00:15:50;99216.47;;;27.98
64624;BMP280;51031;50.912;9.242;2022-08-21T00:16:09;99215.44;;;27.99
64624;BMP280;51031;50.912;9.242;2022-08-21T00:16:26;99220.00;;;27.98
64624;BMP280;51031;50.912;9.242;2022-08-21T00:16:42;99213.78;;;27.98
64624;BMP280;51031;50.912;9.242;2022-08-21T00:16:58;99213.78;;;27.98
64624;BMP280;51031;50.912;9.242;2022-08-21T00:17:14;99217.31;;;27.98
64624;BMP280;51031;50.912;9.242;2022-08-21T00:17:31;99208.41;;;27.98
64624;BMP280;51031;50.912;9.242;2022-08-21T00:17:47;99214.78;;;27.97
64624;BMP280;51031;50.912;9.242;2022-08-21T00:18:04;99212.75;;;27.99
64624;BMP280;51031;50.912;9.242;2022-08-21T00:18:20;99211.09;;;27.98
64624;BMP280;51031;50.912;9.242;2022-08-21T00:18:36;99211.09;;;27.98
64624;BMP280;51031;50.912;9.242;2022-08-21T00:18:52;99214.78;;;27.97
64624;BMP280;51031;50.912;9.242;2022-08-21T00:19:11;99208.41;;;27.98
64624;BMP280;51031;50.912;9.242;2022-08-21T00:19:28;99203.00;;;27.98
64624;BMP280;51031;50.912;9.242;2022-08-21T00:19:44;99209.41;;;27.97
64624;BMP280;51031;50.912;9.242;2022-08-21T00:20:00;99214.78;;;27.97
64624;BMP280;51031;50.912;9.242;2022-08-21T00:20:16;99212.09;;;27.97
64624;BMP280;51031;50.912;9.242;2022-08-21T00:20:34;99212.09;;;27.97
64624;BMP280;51031;50.912;9.242;2022-08-21T00:20:51;99211.25;;;27.96
64624;BMP280;51031;50.912;9.242;2022-08-21T00:21:06;99212.50;;;27.94
64624;BMP280;51031;50.912;9.242;2022-08-21T00:21:22;99213.69;;;27.91
64624;BMP280;51031;50.912;9.242;2022-08-21T00:21:39;99205.16;;;27.88
64624;BMP280;51031;50.912;9.242;2022-08-21T00:21:55;99208.19;;;27.85
64624;BMP280;51031;50.912;9.242;2022-08-21T00:22:12;99206.69;;;27.83
64624;BMP280;51031;50.912;9.242;2022-08-21T00:22:29;99206.88;;;27.81
64624;BMP280;51031;50.912;9.242;2022-08-21T00:22:45;99204.56;;;27.78
64624;BMP280;51031;50.912;9.242;2022-08-21T00:23:02;99210.13;;;27.77
64624;BMP280;51031;50.912;9.242;2022-08-21T00:23:20;99210.31;;;27.75
64624;BMP280;51031;50.912;9.242;2022-08-21T00:23:36;99206.13;;;27.73
64624;BMP280;51031;50.912;9.242;2022-08-21T00:23:52;99207.97;;;27.72
64624;BMP280;51031;50.912;9.242;2022-08-21T00:24:08;99202.78;;;27.71
64624;BMP280;51031;50.912;9.242;2022-08-21T00:24:24;99197.56;;;27.69
64624;BMP280;51031;50.912;9.242;2022-08-21T00:24:40;99210.03;;;27.70
64624;BMP280;51031;50.912;9.242;2022-08-21T00:24:57;99205.66;;;27.69
64624;BMP280;51031;50.912;9.242;2022-08-21T00:25:14;99205.66;;;27.69
64624;BMP280;51031;50.912;9.242;2022-08-21T00:25:30;99204.00;;;27.68
64624;BMP280;51031;50.912;9.242;2022-08-21T00:25:46;99206.03;;;27.66
64624;BMP280;51031;50.912;9.242;2022-08-21T00:26:03;99205.38;;;27.64
64624;BMP280;51031;50.912;9.242;2022-08-21T00:26:20;99209.09;;;27.63
64624;BMP280;51031;50.912;9.242;2022-08-21T00:26:35;99209.94;;;27.64
64624;BMP280;51031;50.912;9.242;2022-08-21T00:26:52;99204.72;;;27.62
64624;BMP280;51031;50.912;9.242;2022-08-21T00:27:07;99202.84;;;27.63
64624;BMP280;51031;50.912;9.242;2022-08-21T00:27:23;99201.19;;;27.62
64624;BMP280;51031;50.912;9.242;2022-08-21T00:27:40;99206.56;;;27.62
64624;BMP280;51031;50.912;9.242;2022-08-21T00:27:59;99207.41;;;27.62
64624;BMP280;51031;50.912;9.242;2022-08-21T00:28:15;99208.44;;;27.61
64624;BMP280;51031;50.912;9.242;2022-08-21T00:28:31;99205.75;;;27.61
64624;BMP280;51031;50.912;9.242;2022-08-21T00:28:47;99198.69;;;27.60
64624;BMP280;51031;50.912;9.242;2022-08-21T00:29:04;99205.09;;;27.59
64624;BMP280;51031;50.912;9.242;2022-08-21T00:29:20;99206.13;;;27.58
64624;BMP280;51031;50.912;9.242;2022-08-21T00:29:36;99207.16;;;27.58
64624;BMP280;51031;50.912;9.242;2022-08-21T00:29:51;99208.16;;;27.57
64624;BMP280;51031;50.912;9.242;2022-08-21T00:30:11;99207.31;;;27.56
64624;BMP280;51031;50.912;9.242;2022-08-21T00:30:28;99211.03;;;27.55
64624;BMP280;51031;50.912;9.242;2022-08-21T00:30:44;99207.69;;;27.53
64624;BMP280;51031;50.912;9.242;2022-08-21T00:31:00;99202.50;;;27.52
64624;BMP280;51031;50.912;9.242;2022-08-21T00:31:19;99200.00;;;27.50
64624;BMP280;51031;50.912;9.242;2022-08-21T00:31:36;99205.19;;;27.52
64624;BMP280;51031;50.912;9.242;2022-08-21T00:31:52;99209.72;;;27.51
64624;BMP280;51031;50.912;9.242;2022-08-21T00:32:08;99208.06;;;27.50
64624;BMP280;51031;50.912;9.242;2022-08-21T00:32:26;99208.91;;;27.51
64624;BMP280;51031;50.912;9.242;2022-08-21T00:32:43;99201.19;;;27.48
64624;BMP280;51031;50.912;9.242;2022-08-21T00:33:01;99210.94;;;27.49
64624;BMP280;51031;50.912;9.242;2022-08-21T00:33:17;99209.25;;;27.48
64624;BMP280;51031;50.912;9.242;2022-08-21T00:33:33;99207.22;;;27.50
64624;BMP280;51031;50.912;9.242;2022-08-21T00:33:49;99202.84;;;27.49
64624;BMP280;51031;50.912;9.242;2022-08-21T00:34:05;99210.94;;;27.49
64624;BMP280;51031;50.912;9.242;2022-08-21T00:34:22;99206.56;;;27.48
64624;BMP280;51031;50.912;9.242;2022-08-21T00:34:38;99201.84;;;27.50
64624;BMP280;51031;50.912;9.242;2022-08-21T00:34:54;99201.84;;;27.50
64624;BMP280;51031;50.912;9.242;2022-08-21T00:35:15;99202.69;;;27.50
64624;BMP280;51031;50.912;9.242;2022-08-21T00:35:33;99205.38;;;27.50
64624;BMP280;51031;50.912;9.242;2022-08-21T00:35:51;99208.06;;;27.50
64624;BMP280;51031;50.912;9.242;2022-08-21T00:36:07;99205.53;;;27.49
64624;BMP280;51031;50.912;9.242;2022-08-21T00:36:23;99202.22;;;27.47
64624;BMP280;51031;50.912;9.242;2022-08-21T00:36:39;99210.44;;;27.45
64624;BMP280;51031;50.912;9.242;2022-08-21T00:36:55;99209.81;;;27.43
64624;BMP280;51031;50.912;9.242;2022-08-21T00:37:11;99209.97;;;27.42
64624;BMP280;51031;50.912;9.242;2022-08-21T00:37:29;99196.88;;;27.39
64624;BMP280;51031;50.912;9.242;2022-08-21T00:37:45;99190.88;;;27.37
64624;BMP280;51031;50.912;9.242;2022-08-21T00:38:02;99199.97;;;27.36
64624;BMP280;51031;50.912;9.242;2022-08-21T00:38:17;99202.00;;;27.34
64624;BMP280;51031;50.912;9.242;2022-08-21T00:38:34;99204.03;;;27.32
64624;BMP280;51031;50.912;9.242;2022-08-21T00:38:50;99207.94;;;27.30
64624;BMP280;51031;50.912;9.242;2022-08-21T00:39:07;99205.38;;;27.28
64624;BMP280;51031;50.912;9.242;2022-08-21T00:39:23;99202.88;;;27.27
64624;BMP280;51031;50.912;9.242;2022-08-21T00:39:39;99202.41;;;27.23
64624;BMP280;51031;50.912;9.242;2022-08-21T00:39:55;99198.03;;;27.22
64624;BMP280;51031;50.912;9.242;2022-08-21T00:40:14;99200.09;;;27.20
64624;BMP280;51031;50.912;9.242;2022-08-21T00:40:35;99199.06;;;27.21
64624;BMP280;51031;50.912;9.242;2022-08-21T00:40:55;99203.59;;;27.21
64624;BMP280;51031;50.912;9.242;2022-08-21T00:41:11;99194.69;;;27.20
64624;BMP280;51031;50.912;9.242;2022-08-21T00:41:30;99200.09;;;27.20
64624;BMP280;51031;50.912;9.242;2022-08-21T00:41:47;99195.06;;;27.17
64624;BMP280;51031;50.912;9.242;2022-08-21T00:42:03;99202.09;;;27.18
64624;BMP280;51031;50.912;9.242;2022-08-21T00:42:20;99206.66;;;27.18
64624;BMP280;51031;50.912;9.242;2022-08-21T00:42:35;99207.47;;;27.18
64624;BMP280;51031;50.912;9.242;2022-08-21T00:42:52;99202.09;;;27.18
64624;BMP280;51031;50.912;9.242;2022-08-21T00:43:11;99203.97;;;27.18
64624;BMP280;51031;50.912;9.242;2022-08-21T00:43:32;99203.81;;;27.19
64624;BMP280;51031;50.912;9.242;2022-08-21T00:43:49;99205.47;;;27.20
64624;BMP280;51031;50.912;9.242;2022-08-21T00:44:06;99200.25;;;27.19
64624;BMP280;51031;50.912;9.242;2022-08-21T00:44:22;99200.25;;;27.19
64624;BMP280;51031;50.912;9.242;2022-08-21T00:44:38;99204.78;;;27.18
64624;BMP280;51031;50.912;9.242;2022-08-21T00:44:53;99203.81;;;27.19
64624;BMP280;51031;50.912;9.242;2022-08-21T00:45:11;99204.63;;;27.20
64624;BMP280;51031;50.912;9.242;2022-08-21T00:45:27;99208.16;;;27.20
64624;BMP280;51031;50.912;9.242;2022-08-21T00:45:43;99204.63;;;27.20
64624;BMP280;51031;50.912;9.242;2022-08-21T00:46:00;99206.50;;;27.19
64624;BMP280;51031;50.912;9.242;2022-08-21T00:46:17;99202.09;;;27.18
64624;BMP280;51031;50.912;9.242;2022-08-21T00:46:34;99203.81;;;27.19
64624;BMP280;51031;50.912;9.242;2022-08-21T00:46:50;99202.94;;;27.19
64624;BMP280;51031;50.912;9.242;2022-08-21T00:47:06;99200.25;;;27.19
64624;BMP280;51031;50.912;9.242;2022-08-21T00:47:21;99202.78;;;27.20
64624;BMP280;51031;50.912;9.242;2022-08-21T00:47:37;99207.13;;;27.21
64624;BMP280;51031;50.912;9.242;2022-08-21T00:47:55;99205.28;;;27.22
64624;BMP280;51031;50.912;9.242;2022-08-21T00:48:11;99201.75;;;27.21
64624;BMP280;51031;50.912;9.242;2022-08-21T00:48:27;99204.28;;;27.23
64624;BMP280;51031;50.912;9.242;2022-08-21T00:48:43;99198.88;;;27.23
64624;BMP280;51031;50.912;9.242;2022-08-21T00:48:59;99203.91;;;27.26
64624;BMP280;51031;50.912;9.242;2022-08-21T00:49:15;99202.88;;;27.27
64624;BMP280;51031;50.912;9.242;2022-08-21T00:49:31;99197.50;;;27.27
64624;BMP280;51031;50.912;9.242;2022-08-21T00:49:50;99205.38;;;27.28
64624;BMP280;51031;50.912;9.242;2022-08-21T00:50:08;99200.84;;;27.28
64624;BMP280;51031;50.912;9.242;2022-08-21T00:50:26;99202.38;;;27.31
64624;BMP280;51031;50.912;9.242;2022-08-21T00:50:46;99198.63;;;27.32
64624;BMP280;51031;50.912;9.242;2022-08-21T00:51:07;99203.03;;;27.33
64624;BMP280;51031;50.912;9.242;2022-08-21T00:51:27;99191.22;;;27.34
64624;BMP280;51031;50.912;9.242;2022-08-21T00:51:47;99210.75;;;27.36
64624;BMP280;51031;50.912;9.242;2022-08-21T00:52:07;99198.94;;;27.37
64624;BMP280;51031;50.912;9.242;2022-08-21T00:52:30;99200.97;;;27.35
64624;BMP280;51031;50.912;9.242;2022-08-21T00:52:47;99202.00;;;27.34
64624;BMP280;51031;50.912;9.242;2022-08-21T00:53:05;99204.69;;;27.34
64624;BMP280;51031;50.912;9.242;2022-08-21T00:53:23;99201.34;;;27.32
64624;BMP280;51031;50.912;9.242;2022-08-21T00:53:41;99204.03;;;27.32
64624;BMP280;51031;50.912;9.242;2022-08-21T00:54:01;99195.94;;;27.32
64624;BMP280;51031;50.912;9.242;2022-08-21T00:54:18;99197.66;;;27.33
64624;BMP280;51031;50.912;9.242;2022-08-21T00:54:38;99193.25;;;27.32
64624;BMP280;51031;50.912;9.242;2022-08-21T00:54:57;99193.25;;;27.32
64624;BMP280;51031;50.912;9.242;2022-08-21T00:55:14;99191.59;;;27.31
64624;BMP280;51031;50.912;9.242;2022-08-21T00:55:33;99203.19;;;27.31
64624;BMP280;51031;50.912;9.242;2022-08-21T00:55:52;99200.69;;;27.30
64624;BMP280;51031;50.912;9.242;2022-08-21T00:56:09;99191.78;;;27.30
64624;BMP280;51031;50.912;9.242;2022-08-21T00:56:26;99193.63;;;27.29
64624;BMP280;51031;50.912;9.242;2022-08-21T00:56:42;99196.97;;;27.31
64624;BMP280;51031;50.912;9.242;2022-08-21T00:57:02;99201.34;;;27.32
64624;BMP280;51031;50.912;9.242;2022-08-21T00:57:21;99194.97;;;27.33
64624;BMP280;51031;50.912;9.242;2022-08-21T00:57:42;99192.25;;;27.33
64624;BMP280;51031;50.912;9.242;2022-08-21T00:58:00;99191.22;;;27.34
64624;BMP280;51031;50.912;9.242;2022-08-21T00:58:17;99198.94;;;27.37
64624;BMP280;51031;50.912;9.242;2022-08-21T00:58:36;99194.59;;;27.36
64624;BMP280;51031;50.912;9.242;2022-08-21T00:58:53;99189.00;;;27.37
64624;BMP280;51031;50.912;9.242;2022-08-21T00:59:11;99192.53;;;27.38
64624;BMP280;51031;50.912;9.242;2022-08-21T00:59:28;99188.81;;;27.39
64624;BMP280;51031;50.912;9.242;2022-08-21T00:59:48;99190.50;;;27.40
64624;BMP280;51031;50.912;9.242;2022-08-21T01:00:12;99193.00;;;27.41
64624;BMP280;51031;50.912;9.242;2022-08-21T01:00:32;99191.97;;;27.42
64624;BMP280;51031;50.912;9.242;2022-08-21T01:00:50;99194.50;;;27.44
64624;BMP280;51031;50.912;9.242;2022-08-21T01:01:07;99189.75;;;27.46
64624;BMP280;51031;50.912;9.242;2022-08-21T01:01:24;99195.13;;;27.46
64624;BMP280;51031;50.912;9.242;2022-08-21T01:01:42;99187.06;;;27.46
64624;BMP280;51031;50.912;9.242;2022-08-21T01:01:58;99188.75;;;27.47
64624;BMP280;51031;50.912;9.242;2022-08-21T01:02:17;99187.72;;;27.48
64624;BMP280;51031;50.912;9.242;2022-08-21T01:02:33;99188.41;;;27.50
64624;BMP280;51031;50.912;9.242;2022-08-21T01:02:49;99186.53;;;27.50
64624;BMP280;51031;50.912;9.242;2022-08-21T01:03:08;99186.53;;;27.50
64624;BMP280;51031;50.912;9.242;2022-08-21T01:03:24;99193.56;;;27.51
64624;BMP280;51031;50.912;9.242;2022-08-21T01:03:40;99190.88;;;27.51
64624;BMP280;51031;50.912;9.242;2022-08-21T01:03:56;99191.56;;;27.53
64624;BMP280;51031;50.912;9.242;2022-08-21T01:04:12;99192.38;;;27.54
64624;BMP280;51031;50.912;9.242;2022-08-21T01:04:28;99191.34;;;27.55
64624;BMP280;51031;50.912;9.242;2022-08-21T01:04:45;99193.00;;;27.56
64624;BMP280;51031;50.912;9.242;2022-08-21T01:05:02;99191.16;;;27.56
64624;BMP280;51031;50.912;9.242;2022-08-21T01:05:18;99194.72;;;27.57
64624;BMP280;51031;50.912;9.242;2022-08-21T01:05:34;99191.81;;;27.58
64624;BMP280;51031;50.912;9.242;2022-08-21T01:05:51;99192.66;;;27.58
64624;BMP280;51031;50.912;9.242;2022-08-21T01:06:08;99189.78;;;27.60
64624;BMP280;51031;50.912;9.242;2022-08-21T01:06:24;99189.59;;;27.61
64624;BMP280;51031;50.912;9.242;2022-08-21T01:06:40;99195.81;;;27.62
64624;BMP280;51031;50.912;9.242;2022-08-21T01:06:56;99187.94;;;27.60
64624;BMP280;51031;50.912;9.242;2022-08-21T01:07:12;99193.94;;;27.62
64624;BMP280;51031;50.912;9.242;2022-08-21T01:07:29;99192.94;;;27.63
64624;BMP280;51031;50.912;9.242;2022-08-21T01:07:45;99191.91;;;27.64
64624;BMP280;51031;50.912;9.242;2022-08-21T01:08:03;99197.97;;;27.66
64624;BMP280;51031;50.912;9.242;2022-08-21T01:08:19;99194.25;;;27.67
64624;BMP280;51031;50.912;9.242;2022-08-21T01:08:36;99195.91;;;27.68
64624;BMP280;51031;50.912;9.242;2022-08-21T01:08:52;99196.75;;;27.69
64624;BMP280;51031;50.912;9.242;2022-08-21T01:09:08;99195.91;;;27.68
64624;BMP280;51031;50.912;9.242;2022-08-21T01:09:24;99193.06;;;27.70
64624;BMP280;51031;50.912;9.242;2022-08-21T01:09:41;99194.06;;;27.69
64624;BMP280;51031;50.912;9.242;2022-08-21T01:09:58;99189.69;;;27.68
64624;BMP280;51031;50.912;9.242;2022-08-21T01:10:14;99182.66;;;27.67
64624;BMP280;51031;50.912;9.242;2022-08-21T01:10:30;99194.25;;;27.67
64624;BMP280;51031;50.912;9.242;2022-08-21T01:10:46;99193.41;;;27.67
64624;BMP280;51031;50.912;9.242;2022-08-21T01:11:04;99192.59;;;27.66
64624;BMP280;51031;50.912;9.242;2022-08-21T01:11:21;99192.59;;;27.66
64624;BMP280;51031;50.912;9.242;2022-08-21T01:11:37;99191.72;;;27.66
64624;BMP280;51031;50.912;9.242;2022-08-21T01:11:53;99194.41;;;27.66
64624;BMP280;51031;50.912;9.242;2022-08-21T01:12:09;99190.91;;;27.65
64624;BMP280;51031;50.912;9.242;2022-08-21T01:12:26;99194.41;;;27.66
64624;BMP280;51031;50.912;9.242;2022-08-21T01:12:42;99192.59;;;27.66
64624;BMP280;51031;50.912;9.242;2022-08-21T01:12:58;99191.72;;;27.66
64624;BMP280;51031;50.912;9.242;2022-08-21T01:13:17;99193.59;;;27.65
64624;BMP280;51031;50.912;9.242;2022-08-21T01:13:36;99195.44;;;27.65
64624;BMP280;51031;50.912;9.242;2022-08-21T01:13:54;99191.91;;;27.64
64624;BMP280;51031;50.912;9.242;2022-08-21T01:14:10;99200.00;;;27.64
64624;BMP280;51031;50.912;9.242;2022-08-21T01:14:27;99196.63;;;27.62
64624;BMP280;51031;50.912;9.242;2022-08-21T01:14:45;99194.97;;;27.61
64624;BMP280;51031;50.912;9.242;2022-08-21T01:15:04;99193.47;;;27.59
64624;BMP280;51031;50.912;9.242;2022-08-21T01:15:22;99192.84;;;27.57
64624;BMP280;51031;50.912;9.242;2022-08-21T01:15:41;99196.75;;;27.55
64624;BMP280;51031;50.912;9.242;2022-08-21T01:16:00;99191.72;;;27.52
64624;BMP280;51031;50.912;9.242;2022-08-21T01:16:20;99194.78;;;27.49
64624;BMP280;51031;50.912;9.242;2022-08-21T01:16:36;99196.00;;;27.46
64624;BMP280;51031;50.912;9.242;2022-08-21T01:16:52;99192.63;;;27.44
64624;BMP280;51031;50.912;9.242;2022-08-21T01:17:10;99197.34;;;27.42
64624;BMP280;51031;50.912;9.242;2022-08-21T01:17:28;99200.44;;;27.39
64624;BMP280;51031;50.912;9.242;2022-08-21T01:17:44;99200.59;;;27.38
64624;BMP280;51031;50.912;9.242;2022-08-21T01:18:00;99189.22;;;27.36
64624;BMP280;51031;50.912;9.242;2022-08-21T01:18:17;99203.66;;;27.35
64624;BMP280;51031;50.912;9.242;2022-08-21T01:18:33;99204.69;;;27.34
64624;BMP280;51031;50.912;9.242;2022-08-21T01:18:49;99207.38;;;27.34
64624;BMP280;51031;50.912;9.242;2022-08-21T01:19:08;99204.69;;;27.34
64624;BMP280;51031;50.912;9.242;2022-08-21T01:19:28;99203.88;;;27.33
64624;BMP280;51031;50.912;9.242;2022-08-21T01:19:44;99197.66;;;27.33
64624;BMP280;51031;50.912;9.242;2022-08-21T01:20:03;99201.16;;;27.33
64624;BMP280;51031;50.912;9.242;2022-08-21T01:20:20;99202.00;;;27.34
64624;BMP280;51031;50.912;9.242;2022-08-21T01:20:36;99202.00;;;27.34
64624;BMP280;51031;50.912;9.242;2022-08-21T01:21:08;99198.28;;;27.35
64624;BMP280;51031;50.912;9.242;2022-08-21T01:21:26;99199.13;;;27.35
64624;BMP280;51031;50.912;9.242;2022-08-21T01:21:44;99199.97;;;27.36
64624;BMP280;51031;50.912;9.242;2022-08-21T01:22:00;99199.97;;;27.36
64624;BMP280;51031;50.912;9.242;2022-08-21T01:22:16;99190.03;;;27.36
64624;BMP280;51031;50.912;9.242;2022-08-21T01:22:34;99198.75;;;27.38
64624;BMP280;51031;50.912;9.242;2022-08-21T01:22:50;99201.44;;;27.38
64624;BMP280;51031;50.912;9.242;2022-08-21T01:23:07;99202.47;;;27.37
64624;BMP280;51031;50.912;9.242;2022-08-21T01:23:22;99198.94;;;27.37
64624;BMP280;51031;50.912;9.242;2022-08-21T01:23:41;99203.31;;;27.38
64624;BMP280;51031;50.912;9.242;2022-08-21T01:23:57;99189.84;;;27.38
64624;BMP280;51031;50.912;9.242;2022-08-21T01:24:14;99189.84;;;27.38
64624;BMP280;51031;50.912;9.242;2022-08-21T01:24:30;99197.91;;;27.38
64624;BMP280;51031;50.912;9.242;2022-08-21T01:24:46;99203.31;;;27.38
64624;BMP280;51031;50.912;9.242;2022-08-21T01:25:03;99198.75;;;27.38
64624;BMP280;51031;50.912;9.242;2022-08-21T01:25:20;99197.91;;;27.38
64624;BMP280;51031;50.912;9.242;2022-08-21T01:25:37;99192.53;;;27.38
64624;BMP280;51031;50.912;9.242;2022-08-21T01:25:53;99195.44;;;27.36
64624;BMP280;51031;50.912;9.242;2022-08-21T01:26:10;99193.09;;;27.33
64624;BMP280;51031;50.912;9.242;2022-08-21T01:26:28;99196.97;;;27.31
64624;BMP280;51031;50.912;9.242;2022-08-21T01:26:45;99195.31;;;27.30
64624;BMP280;51031;50.912;9.242;2022-08-21T01:27:03;99195.31;;;27.30
64624;BMP280;51031;50.912;9.242;2022-08-21T01:27:19;99200.69;;;27.30
64624;BMP280;51031;50.912;9.242;2022-08-21T01:27:35;99199.88;;;27.30
64624;BMP280;51031;50.912;9.242;2022-08-21T01:27:51;99200.69;;;27.30
64624;BMP280;51031;50.912;9.242;2022-08-21T01:28:12;99196.97;;;27.31
64624;BMP280;51031;50.912;9.242;2022-08-21T01:28:33;99196.16;;;27.30
64624;BMP280;51031;50.912;9.242;2022-08-21T01:28:57;99198.63;;;27.32
64624;BMP280;51031;50.912;9.242;2022-08-21T01:29:20;99203.03;;;27.33
64624;BMP280;51031;50.912;9.242;2022-08-21T01:29:41;99202.00;;;27.34
64624;BMP280;51031;50.912;9.242;2022-08-21T01:30:10;99194.75;;;27.34
64624;BMP280;51031;50.912;9.242;2022-08-21T01:30:27;99191.91;;;27.36
64624;BMP280;51031;50.912;9.242;2022-08-21T01:30:44;99196.25;;;27.37
64624;BMP280;51031;50.912;9.242;2022-08-21T01:31:01;99193.56;;;27.37
64624;BMP280;51031;50.912;9.242;2022-08-21T01:31:19;99195.22;;;27.38
64624;BMP280;51031;50.912;9.242;2022-08-21T01:31:38;99199.59;;;27.39
64624;BMP280;51031;50.912;9.242;2022-08-21T01:31:54;99181.59;;;27.39
64624;BMP280;51031;50.912;9.242;2022-08-21T01:32:13;99190.50;;;27.40
64624;BMP280;51031;50.912;9.242;2022-08-21T01:32:29;99193.19;;;27.40
64624;BMP280;51031;50.912;9.242;2022-08-21T01:32:46;99195.91;;;27.40
64624;BMP280;51031;50.912;9.242;2022-08-21T01:33:04;99193.00;;;27.41
64624;BMP280;51031;50.912;9.242;2022-08-21T01:33:22;99193.84;;;27.42
64624;BMP280;51031;50.912;9.242;2022-08-21T01:33:39;99185.59;;;27.43
64624;BMP280;51031;50.912;9.242;2022-08-21T01:33:56;99185.41;;;27.45
64624;BMP280;51031;50.912;9.242;2022-08-21T01:34:14;99188.09;;;27.45
64624;BMP280;51031;50.912;9.242;2022-08-21T01:34:34;99189.75;;;27.46
64624;BMP280;51031;50.912;9.242;2022-08-21T01:34:52;99188.75;;;27.47
64624;BMP280;51031;50.912;9.242;2022-08-21T01:35:08;99189.38;;;27.49
64624;BMP280;51031;50.912;9.242;2022-08-21T01:35:24;99187.72;;;27.48
64624;BMP280;51031;50.912;9.242;2022-08-21T01:35:41;99184.19;;;27.47
64624;BMP280;51031;50.912;9.242;2022-08-21T01:35:57;99187.72;;;27.48
64624;BMP280;51031;50.912;9.242;2022-08-21T01:36:14;99192.28;;;27.47
64624;BMP280;51031;50.912;9.242;2022-08-21T01:36:31;99188.75;;;27.47
64624;BMP280;51031;50.912;9.242;2022-08-21T01:36:47;99193.09;;;27.48
64624;BMP280;51031;50.912;9.242;2022-08-21T01:37:04;99192.28;;;27.47
64624;BMP280;51031;50.912;9.242;2022-08-21T01:37:21;99192.28;;;27.47
64624;BMP280;51031;50.912;9.242;2022-08-21T01:37:37;99198.28;;;27.49
64624;BMP280;51031;50.912;9.242;2022-08-21T01:37:53;99198.50;;;27.48
64624;BMP280;51031;50.912;9.242;2022-08-21T01:38:09;99196.47;;;27.50
64624;BMP280;51031;50.912;9.242;2022-08-21T01:38:25;99196.47;;;27.50
64624;BMP280;51031;50.912;9.242;2022-08-21T01:38:41;99201.84;;;27.50
64624;BMP280;51031;50.912;9.242;2022-08-21T01:38:58;99195.59;;;27.49
64624;BMP280;51031;50.912;9.242;2022-08-21T01:39:14;99193.56;;;27.51